Главная страница
METAR-TAF:

METAR-TAF

Аэропорты :

University Park Airport

State College, Пенсильвания, США

широта: 40-51N, долгота: 077-51W, высота над уровнем моря: 378 м

Текущие метеонаблюдения

Эта сводка был подготовлена 37 минут назад, в 12:53 UTC
Штиль
Температура 21°C
Влажность 83%
Давление 1023 hPa
Видимость: 16.1 км
ясное небо

METAR: KUNV 091253Z 00000KT 10SM SKC 21/18 A3020

Время: 09:30 (13:30 UTC)

Прогноз

Эта сводка был подготовлена 2 часа и 2 минут назад, в 11:28 UTC
Прогноз действительный с 09-го 12 UTC до 10-го 12 UTC
Ветер Узел от северный
Видимость: 10 км
небольшая облачность на высоте 5000 фута
временами
С 09-го 12 UTC до 09-го 13 UTC
Видимость: 6.4 км
дымка
С 09-го 1600 UTC
Ветер 4 Узел от западный
Видимость: 10 км
небольшая облачность на высоте 6000 фута

TAF: KUNV 091128Z 0912/1012 00000KT P6SM FEW050 TEMPO 0912/0913 4SM BR FM091600 26004KT P6SM FEW060

Метеонаблюдения и прогнозы для более 4000 аэропортов (сводки METAR и TAF).

Имеющиеся станции представлены на карте желтыми и красными точками.

Чтобы увидеть название станции, наведите на нее мышь.

Затем щелкните, чтобы увидеть метеонаблюдения и метеопрогнозы.

Управление картой: чтобы увеличить масштаб, щелкните зеленые кнопки с черным крестиком; чтобы уменьшить масштаб, щелкните зеленую кнопку с тире; для просмотра соседних карт щелкайте зеленые стрелки.


METAR-TAF: